Time;durP1;ratioP1;P1;durP2;ratioP2;P2;SDS_P1;SDS_P2;PMS_P1;PMS_P2;Temp;Humidity;BMP_temperature;BMP_pressure;BME280_temperature;BME280_humidity;BME280_pressure;Samples;Min_cycle;Max_cycle;Signal;HPM_P1;HPM_P2
2021/12/31 00:01:14;;;;;;;12.07;6.40;;;;;;;14.16;85.34;101124.34;5049561;28;20048;-66
2021/12/31 00:03:41;;;;;;;9.73;5.95;;;;;;;14.20;85.05;101117.09;5050831;28;20048;-66
2021/12/31 00:06:07;;;;;;;9.25;5.85;;;;;;;14.19;84.78;101118.88;5047652;28;20689;-66
2021/12/31 00:08:33;;;;;;;9.18;6.20;;;;;;;14.17;84.88;101133.97;5044103;28;20057;-66
2021/12/31 00:11:01;;;;;;;10.27;6.38;;;;;;;14.11;84.65;101126.44;5031802;28;20068;-66
2021/12/31 00:13:28;;;;;;;11.73;5.70;;;;;;;14.16;84.29;101134.88;5032719;28;20053;-66
2021/12/31 00:15:55;;;;;;;7.95;5.75;;;;;;;14.27;84.31;101124.53;5040584;28;20086;-66
2021/12/31 00:18:22;;;;;;;11.75;5.93;;;;;;;14.42;83.53;101123.63;5051183;28;20102;-66
2021/12/31 00:20:48;;;;;;;8.18;5.85;;;;;;;14.32;83.79;101125.13;5050239;28;20084;-66
2021/12/31 00:23:17;;;;;;;7.40;5.43;;;;;;;14.36;83.45;101133.72;5049947;28;20456;-66
2021/12/31 00:25:44;;;;;;;9.10;5.40;;;;;;;14.33;83.41;101124.19;5038398;28;20060;-66
2021/12/31 00:28:12;;;;;;;7.05;5.63;;;;;;;14.41;83.10;101132.47;5045041;28;20071;-66
2021/12/31 00:30:40;;;;;;;7.32;4.40;;;;;;;14.31;83.41;101128.69;5047064;28;20046;-66
2021/12/31 00:33:08;;;;;;;8.20;4.38;;;;;;;14.28;84.00;101126.25;5051048;28;20456;-66
2021/12/31 00:35:37;;;;;;;8.52;5.18;;;;;;;14.36;83.35;101126.66;5050599;28;20494;-66
2021/12/31 00:38:04;;;;;;;7.53;4.75;;;;;;;14.31;83.35;101141.03;5046149;28;20069;-66
2021/12/31 00:40:31;;;;;;;6.15;4.47;;;;;;;14.24;83.91;101137.06;5048654;28;20114;-66
2021/12/31 00:42:57;;;;;;;8.13;4.50;;;;;;;14.37;83.35;101140.72;5050767;28;20045;-66
2021/12/31 00:45:25;;;;;;;9.07;4.32;;;;;;;14.43;83.09;101141.16;5049291;28;20127;-66
2021/12/31 00:47:52;;;;;;;7.45;4.25;;;;;;;14.51;83.06;101144.19;5050840;28;20044;-66
2021/12/31 00:50:20;;;;;;;8.52;4.10;;;;;;;14.40;83.24;101141.38;5050347;28;20119;-66
2021/12/31 00:52:47;;;;;;;4.07;3.53;;;;;;;14.44;82.98;101136.75;5041977;28;20091;-66
2021/12/31 00:55:14;;;;;;;5.30;3.50;;;;;;;14.49;83.10;101138.16;5032486;28;20142;-66
2021/12/31 00:57:41;;;;;;;9.85;4.20;;;;;;;14.30;83.69;101140.19;5034282;28;20072;-66
2021/12/31 01:00:10;;;;;;;7.13;3.97;;;;;;;14.54;82.77;101132.59;5043057;28;20425;-66
2021/12/31 01:02:36;;;;;;;5.40;4.10;;;;;;;14.50;82.83;101137.22;5048957;28;20559;-66
2021/12/31 01:05:03;;;;;;;6.45;3.80;;;;;;;14.69;82.39;101138.72;5051029;28;20199;-66
2021/12/31 01:07:31;;;;;;;5.15;3.50;;;;;;;14.44;82.88;101126.19;5034197;28;20114;-66
2021/12/31 01:10:00;;;;;;;6.30;4.45;;;;;;;14.52;83.01;101130.03;5031120;28;20313;-66
2021/12/31 01:12:26;;;;;;;12.57;4.13;;;;;;;14.56;82.55;101126.28;5048786;28;20511;-66
2021/12/31 01:14:57;;;;;;;5.82;3.58;;;;;;;14.48;82.83;101131.19;5049779;28;20069;-66
2021/12/31 01:17:40;;;;;;;5.53;4.00;;;;;;;14.58;82.27;101142.03;5049734;28;20061;-66
2021/12/31 01:20:08;;;;;;;7.15;3.90;;;;;;;14.47;83.12;101136.56;5047329;28;20052;-66
2021/12/31 01:22:36;;;;;;;6.03;3.85;;;;;;;14.65;82.05;101140.69;5030426;28;20517;-66
2021/12/31 01:25:05;;;;;;;4.88;3.90;;;;;;;14.33;83.39;101145.28;5035056;28;20048;-66
2021/12/31 01:27:31;;;;;;;5.07;3.88;;;;;;;14.50;83.01;101141.63;5049629;28;20044;-66
2021/12/31 01:29:58;;;;;;;5.18;4.40;;;;;;;14.60;82.38;101156.81;5049063;28;20105;-66
2021/12/31 01:32:24;;;;;;;4.78;4.07;;;;;;;14.44;82.80;101153.44;5049637;28;20053;-66
2021/12/31 01:34:51;;;;;;;4.63;4.03;;;;;;;14.58;82.59;101150.78;5037672;28;20041;-66
2021/12/31 01:37:17;;;;;;;6.40;3.88;;;;;;;14.52;82.75;101145.03;5029639;28;20493;-66
2021/12/31 01:39:45;;;;;;;4.03;3.35;;;;;;;14.50;82.65;101155.69;5040457;28;20045;-66
2021/12/31 01:42:13;;;;;;;6.45;4.32;;;;;;;14.48;82.98;101165.50;5049692;28;20044;-66
2021/12/31 01:44:46;;;;;;;5.53;4.10;;;;;;;14.50;82.58;101155.69;5036891;28;20045;-66
2021/12/31 01:47:16;;;;;;;4.82;4.13;;;;;;;14.65;82.34;101164.44;5040508;28;20063;-66
2021/12/31 01:49:54;;;;;;;6.82;4.88;;;;;;;14.49;82.53;101171.59;5032923;28;20056;-66
2021/12/31 01:52:21;;;;;;;5.20;4.53;;;;;;;14.22;83.69;101165.34;5029207;28;20422;-66
2021/12/31 01:54:49;;;;;;;5.72;3.83;;;;;;;14.37;83.63;101161.81;5041883;28;20465;-66
2021/12/31 01:57:16;;;;;;;7.28;4.70;;;;;;;14.49;82.61;101169.81;5026612;28;20124;-66
2021/12/31 01:59:43;;;;;;;6.50;4.93;;;;;;;14.50;82.30;101152.19;5037637;28;20072;-66
2021/12/31 02:02:10;;;;;;;7.95;4.70;;;;;;;14.39;82.91;101144.09;5044600;28;20075;-66
2021/12/31 02:04:38;;;;;;;6.57;5.00;;;;;;;14.39;82.50;101157.28;5043114;28;20164;-66
2021/12/31 02:07:05;;;;;;;8.10;5.00;;;;;;;14.38;82.49;101145.03;5032753;28;20103;-66
2021/12/31 02:09:36;;;;;;;7.40;5.03;;;;;;;14.18;83.40;101140.09;5047384;28;20134;-66
2021/12/31 02:12:05;;;;;;;5.80;5.10;;;;;;;14.08;83.87;101137.13;5044147;28;20127;-66
2021/12/31 02:14:32;;;;;;;9.43;5.15;;;;;;;14.10;83.63;101148.44;5047212;28;20045;-66
2021/12/31 02:16:58;;;;;;;6.85;4.28;;;;;;;14.29;82.73;101148.19;5029477;28;20053;-66
2021/12/31 02:19:28;;;;;;;6.00;4.95;;;;;;;14.15;83.18;101146.41;5038354;28;20052;-66
2021/12/31 02:21:56;;;;;;;9.68;4.63;;;;;;;13.90;84.45;101139.09;5046419;28;20421;-66
2021/12/31 02:24:22;;;;;;;7.43;4.93;;;;;;;14.07;83.20;101146.00;5046229;28;20048;-66
2021/12/31 02:26:49;;;;;;;5.78;4.40;;;;;;;14.10;83.18;101144.03;5040420;28;20044;-66
2021/12/31 02:29:15;;;;;;;6.90;4.85;;;;;;;14.06;83.06;101152.22;5046910;28;20041;-66
2021/12/31 02:31:42;;;;;;;5.70;4.38;;;;;;;13.97;83.47;101153.59;5045390;28;20061;-66
2021/12/31 02:34:09;;;;;;;9.65;5.25;;;;;;;13.92;83.47;101157.47;5045766;28;20045;-66
2021/12/31 02:36:35;;;;;;;7.45;5.45;;;;;;;13.97;83.43;101150.09;5044893;28;20084;-66
2021/12/31 02:39:03;;;;;;;6.05;4.65;;;;;;;13.95;82.98;101157.28;5046500;28;20146;-66
2021/12/31 02:41:30;;;;;;;7.07;5.13;;;;;;;13.89;83.48;101155.00;5037817;28;20107;-66
2021/12/31 02:43:56;;;;;;;6.68;4.82;;;;;;;13.81;83.70;101162.50;5038733;28;20069;-66
2021/12/31 02:46:23;;;;;;;6.72;5.63;;;;;;;13.83;83.75;101161.47;5034992;28;20084;-66
2021/12/31 02:48:55;;;;;;;7.60;5.18;;;;;;;13.96;83.04;101166.88;5043830;28;20424;-66
2021/12/31 02:51:22;;;;;;;7.25;4.97;;;;;;;13.93;83.19;101182.88;5035223;28;20045;-66
2021/12/31 02:53:51;;;;;;;8.20;5.15;;;;;;;13.91;84.57;101176.84;5026009;28;20054;-66
2021/12/31 02:56:20;;;;;;;8.38;5.97;;;;;;;13.61;85.89;101159.22;5027177;28;20042;-67
2021/12/31 02:58:47;;;;;;;9.52;6.25;;;;;;;13.49;86.58;101146.75;5029152;28;20049;-68
2021/12/31 03:01:13;;;;;;;7.40;5.65;;;;;;;13.46;86.60;101143.44;5045516;28;20110;-67
2021/12/31 03:03:42;;;;;;;7.07;5.80;;;;;;;13.33;87.40;101151.22;5048781;28;20060;-67
2021/12/31 03:06:10;;;;;;;7.18;5.05;;;;;;;13.34;87.16;101147.63;5041207;28;20041;-67
2021/12/31 03:08:39;;;;;;;5.63;4.50;;;;;;;13.51;85.79;101144.03;5031108;28;20068;-67
2021/12/31 03:11:07;;;;;;;7.68;4.55;;;;;;;13.49;85.33;101165.19;5039006;28;20489;-67
2021/12/31 03:13:38;;;;;;;6.30;4.40;;;;;;;13.72;84.54;101163.03;5048883;28;20505;-67
2021/12/31 03:16:06;;;;;;;4.22;3.80;;;;;;;13.86;83.54;101149.88;5050516;28;20049;-67
2021/12/31 03:18:33;;;;;;;4.28;3.88;;;;;;;13.85;83.05;101153.50;5049660;28;20037;-67
2021/12/31 03:21:05;;;;;;;7.82;3.95;;;;;;;13.78;83.30;101152.16;5050554;28;20107;-67
2021/12/31 03:23:32;;;;;;;6.03;4.53;;;;;;;13.84;82.67;101155.28;5049799;28;20055;-67
2021/12/31 03:25:58;;;;;;;6.32;4.03;;;;;;;13.96;82.49;101158.97;5042510;28;20055;-67
2021/12/31 03:28:25;;;;;;;6.07;4.57;;;;;;;14.01;82.40;101164.81;5030014;28;20493;-67
2021/12/31 03:30:54;;;;;;;4.70;3.90;;;;;;;14.03;81.88;101162.94;5048472;28;20044;-67
2021/12/31 03:33:20;;;;;;;3.95;3.65;;;;;;;14.02;81.78;101158.59;5049416;28;20057;-67
2021/12/31 03:35:47;;;;;;;4.38;3.97;;;;;;;13.97;82.42;101158.88;5039545;28;20223;-67
2021/12/31 03:38:14;;;;;;;7.03;4.75;;;;;;;13.92;82.49;101160.09;5030215;28;20072;-66
2021/12/31 03:40:41;;;;;;;5.70;5.00;;;;;;;13.89;82.36;101153.22;5037263;28;20391;-66
2021/12/31 03:43:08;;;;;;;6.40;4.90;;;;;;;13.88;82.72;101148.03;5050262;28;20048;-66
2021/12/31 03:45:35;;;;;;;8.55;5.57;;;;;;;13.99;82.05;101142.97;5041707;28;20049;-66
2021/12/31 03:48:03;;;;;;;8.77;5.07;;;;;;;13.89;82.71;101149.75;5031640;28;20510;-67
2021/12/31 03:50:29;;;;;;;10.80;6.25;;;;;;;13.84;83.19;101146.50;5035982;28;20134;-66
2021/12/31 03:52:56;;;;;;;8.57;5.55;;;;;;;13.62;84.38;101150.41;5049545;28;20044;-66
2021/12/31 03:55:22;;;;;;;10.40;6.25;;;;;;;13.49;84.53;101145.91;5049291;28;20130;-66
2021/12/31 03:57:48;;;;;;;6.75;5.53;;;;;;;13.45;84.82;101142.59;5049215;28;20110;-68
2021/12/31 04:00:16;;;;;;;6.78;5.93;;;;;;;13.37;85.59;101136.94;5043677;28;20046;-68
2021/12/31 04:02:42;;;;;;;10.63;6.22;;;;;;;13.39;85.53;101140.31;5048710;28;20056;-68
2021/12/31 04:05:10;;;;;;;10.32;6.28;;;;;;;13.50;85.17;101137.94;5045079;28;20073;-67
2021/12/31 04:07:37;;;;;;;12.50;7.30;;;;;;;13.42;85.45;101134.03;5029496;28;20041;-68
2021/12/31 04:10:04;;;;;;;6.00;5.40;;;;;;;13.25;85.59;101129.72;5030776;28;20103;-68
2021/12/31 04:12:31;;;;;;;7.47;5.72;;;;;;;13.46;85.03;101130.28;5049065;28;20041;-67
2021/12/31 04:14:57;;;;;;;9.07;7.38;;;;;;;13.26;85.97;101130.56;5044376;28;20485;-67
2021/12/31 04:17:23;;;;;;;10.65;7.13;;;;;;;13.15;85.73;101132.00;5028739;28;20053;-67
2021/12/31 04:19:55;;;;;;;12.25;7.15;;;;;;;13.25;85.21;101124.47;5030240;28;20127;-67
2021/12/31 04:22:24;;;;;;;9.13;6.90;;;;;;;13.14;85.58;101127.69;5047044;28;20044;-67
2021/12/31 04:24:53;;;;;;;7.20;6.32;;;;;;;13.17;85.34;101126.66;5049562;28;20041;-67
2021/12/31 04:27:22;;;;;;;10.05;6.30;;;;;;;13.17;84.85;101126.66;5046813;28;20094;-67
2021/12/31 04:29:52;;;;;;;7.70;5.78;;;;;;;13.20;84.83;101123.84;5048574;28;20528;-67
2021/12/31 04:32:20;;;;;;;7.78;5.75;;;;;;;13.31;83.94;101126.72;5048182;28;20041;-67
2021/12/31 04:34:47;;;;;;;5.65;4.80;;;;;;;13.26;83.72;101123.53;5048482;28;20045;-67
2021/12/31 04:37:13;;;;;;;11.45;5.63;;;;;;;13.28;83.50;101119.00;5048378;28;20516;-67
2021/12/31 04:39:41;;;;;;;6.45;4.82;;;;;;;13.29;83.42;101119.88;5048262;28;20190;-66
2021/12/31 04:42:08;;;;;;;9.10;4.93;;;;;;;13.21;83.29;101127.34;5046042;28;20049;-66
2021/12/31 04:44:34;;;;;;;6.43;3.83;;;;;;;13.24;82.97;101125.38;5049121;28;20049;-66
2021/12/31 04:47:00;;;;;;;4.75;3.78;;;;;;;13.44;82.04;101137.44;5048203;28;20094;-66
2021/12/31 04:49:27;;;;;;;4.85;3.85;;;;;;;13.29;82.25;101133.88;5048403;28;20130;-66
2021/12/31 04:51:53;;;;;;;3.33;3.00;;;;;;;13.26;82.09;101139.34;5030042;28;20045;-66
2021/12/31 04:54:20;;;;;;;7.35;2.90;;;;;;;13.41;81.46;101129.72;5028275;28;20519;-66
2021/12/31 04:56:51;;;;;;;3.60;2.53;;;;;;;13.34;81.35;101137.09;5043541;28;20052;-66
2021/12/31 04:59:18;;;;;;;3.75;2.58;;;;;;;13.44;80.79;101132.16;5047909;28;20040;-66
2021/12/31 05:01:44;;;;;;;2.83;2.10;;;;;;;13.45;80.91;101131.25;5041726;28;20081;-66
2021/12/31 05:04:10;;;;;;;4.43;2.05;;;;;;;13.53;80.39;101127.19;5048390;28;20068;-66
2021/12/31 05:06:38;;;;;;;3.92;2.50;;;;;;;13.53;80.28;101129.84;5031765;28;20494;-66
2021/12/31 05:09:04;;;;;;;4.80;1.70;;;;;;;13.49;80.46;101135.38;5046583;28;20049;-66
2021/12/31 05:11:30;;;;;;;1.92;1.80;;;;;;;13.42;80.34;101142.78;5044492;28;20509;-66
2021/12/31 05:13:58;;;;;;;4.30;1.83;;;;;;;13.67;79.89;101134.34;5041758;28;20115;-66
2021/12/31 05:16:24;;;;;;;2.92;2.05;;;;;;;13.64;79.54;101131.84;5047994;28;20098;-66
2021/12/31 05:18:51;;;;;;;3.20;2.05;;;;;;;13.62;79.23;101131.97;5032343;28;20134;-66
2021/12/31 05:21:17;;;;;;;5.55;2.63;;;;;;;13.82;78.92;101137.84;5047257;28;20126;-66
2021/12/31 05:23:43;;;;;;;2.55;1.95;;;;;;;13.86;78.46;101131.44;5047185;28;20044;-66
2021/12/31 05:26:10;;;;;;;3.67;2.30;;;;;;;13.78;78.62;101134.56;5037306;28;20109;-66
2021/12/31 05:28:36;;;;;;;7.35;2.42;;;;;;;13.82;78.27;101133.41;5043612;28;20040;-67
2021/12/31 05:31:04;;;;;;;3.80;2.42;;;;;;;13.74;78.82;101127.75;5044275;28;20057;-66
2021/12/31 05:33:33;;;;;;;3.17;2.05;;;;;;;13.55;79.49;101135.88;5043670;28;20045;-66
2021/12/31 05:36:00;;;;;;;2.35;2.17;;;;;;;13.55;79.27;101137.66;5046542;28;20063;-66
2021/12/31 05:38:26;;;;;;;3.40;2.22;;;;;;;13.49;79.87;101125.69;5044850;28;20401;-66
2021/12/31 05:40:53;;;;;;;2.90;1.83;;;;;;;13.50;80.03;101134.44;5046387;28;20090;-66
2021/12/31 05:43:19;;;;;;;2.60;2.40;;;;;;;13.54;79.70;101134.19;5040616;28;20159;-66
2021/12/31 05:45:45;;;;;;;3.08;2.85;;;;;;;13.47;80.16;101135.47;5040945;28;20073;-65
2021/12/31 05:48:13;;;;;;;2.60;2.22;;;;;;;13.58;79.45;101130.44;5040322;28;20118;-65
2021/12/31 05:50:39;;;;;;;4.53;2.75;;;;;;;13.57;79.50;101128.72;5043012;28;20095;-65
2021/12/31 05:53:06;;;;;;;3.03;2.55;;;;;;;13.72;78.91;101126.13;5045498;28;20111;-65
2021/12/31 05:55:32;;;;;;;4.03;2.88;;;;;;;13.80;78.81;101131.81;5044377;28;20073;-65
2021/12/31 05:58:00;;;;;;;2.85;2.65;;;;;;;13.75;78.49;101125.94;5045423;28;22090;-65
2021/12/31 06:00:26;;;;;;;2.72;2.15;;;;;;;13.61;79.26;101130.25;5043597;28;20053;-66
2021/12/31 06:02:53;;;;;;;3.00;2.80;;;;;;;13.73;79.26;101130.47;5040746;28;20087;-66
2021/12/31 06:05:22;;;;;;;4.85;2.78;;;;;;;13.61;79.05;101130.25;5046167;28;20121;-66
2021/12/31 06:07:48;;;;;;;6.05;2.50;;;;;;;13.74;78.90;101124.28;5042729;28;20045;-65
2021/12/31 06:10:15;;;;;;;2.90;2.63;;;;;;;13.55;79.47;101114.81;5040980;28;20110;-65
2021/12/31 06:12:43;;;;;;;5.47;2.97;;;;;;;13.59;79.30;101121.59;5044683;28;20072;-65
2021/12/31 06:15:10;;;;;;;5.82;3.85;;;;;;;13.62;79.44;101131.97;5043727;28;20041;-65
2021/12/31 06:17:37;;;;;;;3.00;2.60;;;;;;;13.59;78.90;101137.41;5043235;28;20053;-65
2021/12/31 06:20:05;;;;;;;3.35;3.05;;;;;;;13.72;78.92;101144.59;5043630;28;20049;-65
2021/12/31 06:22:33;;;;;;;5.97;2.42;;;;;;;13.78;78.36;101144.25;5041647;28;20099;-65
2021/12/31 06:24:59;;;;;;;2.53;2.20;;;;;;;13.89;77.88;101149.75;5047104;28;20437;-65
2021/12/31 06:27:25;;;;;;;3.72;3.05;;;;;;;13.86;78.27;101152.53;5045836;28;20493;-65
2021/12/31 06:29:52;;;;;;;4.75;3.20;;;;;;;13.96;77.88;101158.97;5044813;28;20558;-65
2021/12/31 06:32:18;;;;;;;6.88;3.03;;;;;;;13.86;78.08;101166.56;5038370;28;20068;-65
2021/12/31 06:34:44;;;;;;;3.35;2.42;;;;;;;13.87;77.65;101156.88;5046391;28;20061;-65
2021/12/31 06:37:11;;;;;;;3.70;2.58;;;;;;;13.97;77.47;101161.50;5033131;28;20122;-65
2021/12/31 06:39:41;;;;;;;6.90;2.65;;;;;;;13.89;77.67;101157.66;5041933;28;20045;-65
2021/12/31 06:42:08;;;;;;;6.30;2.65;;;;;;;14.03;76.99;101162.94;5047586;28;20116;-65
2021/12/31 06:44:34;;;;;;;4.10;2.85;;;;;;;14.10;76.54;101157.22;5047934;28;20627;-65
2021/12/31 06:47:02;;;;;;;4.40;2.70;;;;;;;14.16;76.47;101158.63;5041627;28;20072;-65
2021/12/31 06:49:28;;;;;;;13.88;2.90;;;;;;;14.26;76.05;101153.66;5048884;28;20051;-65
2021/12/31 06:51:54;;;;;;;5.20;2.78;;;;;;;14.25;75.82;101159.88;5046471;28;20065;-65
2021/12/31 06:54:21;;;;;;;4.85;2.72;;;;;;;14.48;75.40;101169.94;5048045;28;20077;-65
2021/12/31 06:56:48;;;;;;;4.40;2.92;;;;;;;14.49;74.93;101176.88;5038436;28;20122;-65
2021/12/31 06:59:15;;;;;;;2.70;2.50;;;;;;;14.47;74.99;101171.72;5048286;28;20551;-65
2021/12/31 07:01:41;;;;;;;3.95;2.35;;;;;;;14.71;74.13;101163.25;5045995;28;20095;-66
2021/12/31 07:04:07;;;;;;;3.55;2.63;;;;;;;14.41;74.74;101166.78;5047586;28;20210;-66
2021/12/31 07:06:34;;;;;;;3.03;2.78;;;;;;;14.43;75.20;101167.56;5045566;28;20045;-66
2021/12/31 07:09:00;;;;;;;6.00;2.47;;;;;;;14.54;74.78;101169.53;5045091;28;20095;-66
2021/12/31 07:11:26;;;;;;;4.65;2.42;;;;;;;14.58;74.22;101171.06;5039624;28;20081;-66
2021/12/31 07:13:54;;;;;;;3.78;2.63;;;;;;;14.47;74.54;101173.50;5047683;28;20606;-66
2021/12/31 07:16:20;;;;;;;6.43;2.90;;;;;;;14.50;74.50;101174.16;5047033;28;20092;-66
2021/12/31 07:18:47;;;;;;;3.88;3.17;;;;;;;14.63;74.04;101175.09;5047363;28;20118;-66
2021/12/31 07:21:13;;;;;;;3.65;2.70;;;;;;;14.48;74.22;101175.19;5047292;28;20095;-66
2021/12/31 07:23:39;;;;;;;4.25;3.25;;;;;;;14.48;74.29;101167.28;5044324;28;20081;-66
2021/12/31 07:26:06;;;;;;;5.22;2.95;;;;;;;14.42;74.41;101165.00;5046310;28;20064;-66
2021/12/31 07:28:32;;;;;;;5.03;2.97;;;;;;;14.46;74.58;101164.72;5046200;28;20103;-66
2021/12/31 07:31:00;;;;;;;4.75;3.40;;;;;;;14.41;74.66;101164.16;5038751;28;20950;-66
2021/12/31 07:33:27;;;;;;;2.90;2.63;;;;;;;14.39;74.50;101147.56;5046415;28;20123;-65
2021/12/31 07:35:54;;;;;;;4.68;2.35;;;;;;;14.51;74.21;101153.91;5043412;28;20562;-65
2021/12/31 07:38:25;;;;;;;5.95;2.40;;;;;;;14.29;74.56;101156.13;5046310;28;20468;-65
2021/12/31 07:40:52;;;;;;;4.13;1.98;;;;;;;14.44;73.83;101158.72;5040360;28;20048;-66
2021/12/31 07:43:20;;;;;;;2.58;2.00;;;;;;;14.57;73.55;101162.28;5046424;28;20055;-66
2021/12/31 07:45:46;;;;;;;4.50;2.03;;;;;;;14.58;73.47;101156.06;5044767;28;20102;-66
2021/12/31 07:48:14;;;;;;;2.20;2.10;;;;;;;14.31;74.53;101149.78;5047361;28;20130;-66
2021/12/31 07:50:40;;;;;;;5.38;2.25;;;;;;;13.99;75.32;101154.38;5049242;28;20137;-66
2021/12/31 07:53:07;;;;;;;9.38;2.53;;;;;;;13.91;75.97;101148.69;5051021;28;20485;-65
2021/12/31 07:55:34;;;;;;;3.88;2.30;;;;;;;13.75;75.97;101139.13;5046840;28;20065;-66
2021/12/31 07:58:01;;;;;;;6.35;2.30;;;;;;;13.61;76.94;101140.78;5049575;28;20088;-66
2021/12/31 08:00:28;;;;;;;3.45;2.50;;;;;;;13.44;77.03;101137.44;5049919;28;20497;-66
2021/12/31 08:02:55;;;;;;;4.63;3.10;;;;;;;13.58;76.90;101133.06;5051095;28;20140;-66
2021/12/31 08:05:23;;;;;;;4.57;2.58;;;;;;;13.42;77.44;101129.59;5041725;28;20046;-66
2021/12/31 08:07:50;;;;;;;2.35;2.13;;;;;;;13.40;77.40;101123.59;5050102;28;20076;-66
2021/12/31 08:10:16;;;;;;;3.03;1.95;;;;;;;13.51;76.84;101113.28;5049860;28;20041;-67
2021/12/31 08:12:43;;;;;;;2.20;2.00;;;;;;;13.59;76.73;101111.06;5048651;28;20069;-66
2021/12/31 08:15:09;;;;;;;2.75;2.05;;;;;;;13.71;76.04;101121.81;5048315;28;20570;-66
2021/12/31 08:17:36;;;;;;;2.30;2.10;;;;;;;13.67;76.08;101120.31;5048514;28;20566;-66
2021/12/31 08:20:02;;;;;;;7.68;1.88;;;;;;;13.64;76.02;101121.31;5050769;28;20094;-67
2021/12/31 08:22:30;;;;;;;4.63;1.92;;;;;;;13.61;76.61;101124.97;5049233;28;20053;-66
2021/12/31 08:24:56;;;;;;;3.42;1.83;;;;;;;13.37;76.77;101121.13;5049762;28;20087;-66
2021/12/31 08:27:23;;;;;;;6.00;2.42;;;;;;;13.62;76.23;101126.69;5049071;28;20045;-67
2021/12/31 08:29:49;;;;;;;8.77;2.17;;;;;;;13.43;76.71;101126.03;5049422;28;20068;-66
2021/12/31 08:32:16;;;;;;;3.60;1.83;;;;;;;13.44;76.36;101126.91;5048271;28;20434;-66
2021/12/31 08:34:42;;;;;;;6.55;2.25;;;;;;;13.73;75.82;101130.47;5047836;28;20049;-66
2021/12/31 08:37:09;;;;;;;2.08;1.98;;;;;;;13.68;75.46;101119.34;5047387;28;20098;-66
2021/12/31 08:39:36;;;;;;;2.50;1.77;;;;;;;13.69;75.47;101126.31;5046591;28;20154;-67
2021/12/31 08:42:04;;;;;;;5.15;1.63;;;;;;;13.82;75.07;101122.03;5037013;28;20489;-67
2021/12/31 08:44:30;;;;;;;4.88;1.92;;;;;;;13.91;74.77;101119.69;5047309;28;20166;-67
2021/12/31 08:46:56;;;;;;;2.75;1.63;;;;;;;14.13;73.85;101124.53;5047350;28;20077;-67
2021/12/31 08:49:24;;;;;;;4.15;1.95;;;;;;;14.10;73.92;101128.22;5050781;28;20493;-67
2021/12/31 08:51:50;;;;;;;4.28;2.30;;;;;;;14.28;73.79;101126.25;5045923;28;20053;-66
2021/12/31 08:54:16;;;;;;;3.85;1.75;;;;;;;14.76;72.28;101121.53;5048392;28;20053;-67
2021/12/31 08:56:45;;;;;;;3.08;1.70;;;;;;;14.97;71.82;101122.81;5049037;28;20049;-67
2021/12/31 08:59:12;;;;;;;2.15;1.40;;;;;;;15.02;70.32;101124.22;5049369;28;20052;-67
2021/12/31 09:01:38;;;;;;;2.08;1.30;;;;;;;14.92;70.82;101131.06;5049973;28;20127;-67
2021/12/31 09:04:05;;;;;;;1.58;1.35;;;;;;;15.01;70.36;101116.41;5051125;28;20068;-67
2021/12/31 09:06:31;;;;;;;1.77;1.67;;;;;;;14.76;71.09;101127.69;5047531;28;20048;-67
2021/12/31 09:08:58;;;;;;;1.38;1.15;;;;;;;14.78;71.08;101133.69;5050311;28;20343;-67
2021/12/31 09:11:24;;;;;;;1.40;1.30;;;;;;;14.61;71.75;101131.28;5040862;28;20045;-67
2021/12/31 09:13:54;;;;;;;7.10;1.38;;;;;;;14.59;71.35;101110.28;5039750;28;20513;-67
2021/12/31 09:16:21;;;;;;;3.07;1.67;;;;;;;14.69;71.43;101114.97;5045268;28;20053;-67
2021/12/31 09:18:47;;;;;;;3.95;1.67;;;;;;;14.67;70.86;101114.22;5049108;28;20068;-67
2021/12/31 09:21:17;;;;;;;4.68;1.45;;;;;;;14.51;71.31;101117.81;5047146;28;20041;-67
2021/12/31 09:23:43;;;;;;;1.10;1.00;;;;;;;14.70;71.01;101111.38;5049450;28;20082;-67
2021/12/31 09:26:10;;;;;;;1.50;1.20;;;;;;;14.81;70.37;101107.13;5047952;28;20412;-67
2021/12/31 09:28:36;;;;;;;2.42;0.98;;;;;;;14.80;70.21;101123.03;5048125;28;20287;-67
2021/12/31 09:31:07;;;;;;;3.00;1.25;;;;;;;14.84;70.29;101129.84;5041634;28;20041;-67
2021/12/31 09:33:33;;;;;;;2.65;1.17;;;;;;;14.98;70.05;101114.81;5047637;28;20045;-67
2021/12/31 09:36:00;;;;;;;1.50;0.98;;;;;;;14.96;70.13;101119.34;5049182;28;20095;-67
2021/12/31 09:38:26;;;;;;;1.52;1.02;;;;;;;14.86;70.02;101134.06;5046765;28;20091;-67
2021/12/31 09:40:52;;;;;;;5.40;1.50;;;;;;;15.03;69.95;101123.28;5036984;28;20126;-67
2021/12/31 09:43:19;;;;;;;4.25;1.30;;;;;;;14.99;70.34;101128.88;5047977;28;20122;-67
2021/12/31 09:45:49;;;;;;;1.85;1.20;;;;;;;14.48;72.18;101133.84;5045568;28;20068;-67
2021/12/31 09:48:20;;;;;;;3.97;1.20;;;;;;;14.17;74.19;101133.97;5048420;28;20096;-67
2021/12/31 09:50:49;;;;;;;3.90;1.80;;;;;;;14.13;74.50;101135.94;5048247;28;20052;-67
2021/12/31 09:53:17;;;;;;;1.50;1.35;;;;;;;14.22;74.25;101141.59;5049324;28;20045;-67
2021/12/31 09:55:45;;;;;;;1.13;1.13;;;;;;;14.17;74.80;101138.38;5047918;28;20551;-67
2021/12/31 09:58:14;;;;;;;2.28;1.65;;;;;;;14.29;74.92;101135.00;5046730;28;20049;-68
2021/12/31 10:00:44;;;;;;;1.73;1.40;;;;;;;14.25;75.05;101142.25;5047772;28;20437;-67
2021/12/31 10:03:13;;;;;;;2.90;1.75;;;;;;;14.15;75.27;101141.94;5046699;28;20132;-68
2021/12/31 10:05:42;;;;;;;5.28;1.42;;;;;;;14.35;74.74;101146.06;5044456;28;20049;-67
2021/12/31 10:08:16;;;;;;;3.00;1.88;;;;;;;14.34;74.94;101144.34;5036669;28;20107;-67
2021/12/31 10:10:43;;;;;;;1.85;1.33;;;;;;;14.50;74.96;101142.50;5045757;28;20430;-67
2021/12/31 10:13:09;;;;;;;1.85;1.73;;;;;;;14.65;74.61;101129.28;5048765;28;20041;-67
2021/12/31 10:15:39;;;;;;;2.25;1.38;;;;;;;14.56;74.50;101136.81;5048707;28;20049;-67
2021/12/31 10:18:10;;;;;;;1.73;1.40;;;;;;;14.41;74.43;101140.41;5049078;28;20049;-67
2021/12/31 10:20:49;;;;;;;4.13;1.42;;;;;;;14.48;74.75;101141.75;5047447;28;20413;-67
2021/12/31 10:23:17;;;;;;;4.18;1.42;;;;;;;14.62;73.84;101135.63;5046633;28;20059;-68
2021/12/31 10:25:43;;;;;;;3.90;1.67;;;;;;;14.52;74.26;101148.50;5042607;28;20071;-67
2021/12/31 10:28:12;;;;;;;1.88;1.45;;;;;;;14.53;73.96;101130.88;5042713;28;20069;-67
2021/12/31 10:30:39;;;;;;;2.33;1.70;;;;;;;14.49;74.64;101139.94;5042612;28;20072;-67
2021/12/31 10:33:06;;;;;;;3.50;1.48;;;;;;;14.34;75.18;101120.63;5046821;28;20068;-67
2021/12/31 10:35:39;;;;;;;7.05;1.50;;;;;;;14.42;75.05;101125.44;5041682;28;20060;-66
2021/12/31 10:38:07;;;;;;;4.93;1.65;;;;;;;14.46;74.81;101124.28;5047088;28;20095;-67
2021/12/31 10:40:36;;;;;;;3.13;1.77;;;;;;;14.70;73.41;101121.94;5045413;28;20083;-67
2021/12/31 10:43:11;;;;;;;3.13;1.95;;;;;;;14.77;73.43;101123.25;5047995;28;20075;-67
2021/12/31 10:45:38;;;;;;;4.20;1.60;;;;;;;14.98;72.69;101120.09;5048305;28;20115;-67
2021/12/31 10:48:09;;;;;;;4.35;2.00;;;;;;;15.02;72.54;101120.75;5047834;28;20080;-67
2021/12/31 10:50:37;;;;;;;;;;;;;;;14.68;71.93;101114.09;5048463;28;20076;-67
2021/12/31 10:53:09;;;;;;;1.13;1.10;;;;;;;14.76;71.20;101116.25;5048284;28;19924;-66
2021/12/31 10:55:40;;;;;;;3.90;1.00;;;;;;;14.96;70.60;101110.59;5048561;28;20152;-66
2021/12/31 10:58:10;;;;;;;3.30;1.20;;;;;;;15.01;69.81;101105.84;5047928;28;20527;-66
2021/12/31 11:00:38;;;;;;;1.90;0.90;;;;;;;15.03;69.36;101106.59;5045845;28;20045;-67
2021/12/31 11:03:05;;;;;;;1.67;1.20;;;;;;;14.97;69.36;101104.34;5047947;28;20052;-68
2021/12/31 11:05:32;;;;;;;5.28;1.20;;;;;;;14.93;69.26;101102.81;5047966;28;20130;-67
2021/12/31 11:08:00;;;;;;;1.48;1.08;;;;;;;14.93;69.58;101098.41;5047785;28;20045;-67
2021/12/31 11:10:28;;;;;;;2.30;1.05;;;;;;;14.90;69.30;101098.59;5048133;28;20516;-67
2021/12/31 11:12:56;;;;;;;3.88;1.27;;;;;;;14.90;69.47;101101.25;5039382;28;20108;-67
2021/12/31 11:15:22;;;;;;;2.83;1.30;;;;;;;14.83;69.53;101102.59;5046834;28;20056;-67
2021/12/31 11:17:52;;;;;;;0.77;0.77;;;;;;;14.93;69.48;101102.81;5044855;28;20068;-67
2021/12/31 11:20:21;;;;;;;1.10;1.00;;;;;;;14.90;69.28;101095.97;5044270;28;20098;-67
2021/12/31 11:22:50;;;;;;;3.05;1.35;;;;;;;14.99;69.10;101087.47;5047876;28;20044;-67
2021/12/31 11:25:21;;;;;;;1.42;0.80;;;;;;;15.10;68.66;101084.13;5052022;28;20068;-67